createdAt,value
2018-02-19T00:00:30.874Z,38.47
2018-02-19T00:02:59.075Z,42.55
2018-02-19T00:05:26.556Z,36.17
2018-02-19T00:07:53.969Z,35.33
2018-02-19T00:10:21.399Z,40.60
2018-02-19T00:12:48.815Z,35.80
2018-02-19T00:15:16.245Z,38.92
2018-02-19T00:17:43.659Z,39.40
2018-02-19T00:20:11.078Z,34.58
2018-02-19T00:22:38.499Z,38.97
2018-02-19T00:25:05.936Z,40.38
2018-02-19T00:27:33.333Z,39.40
2018-02-19T00:30:00.744Z,35.15
2018-02-19T00:32:28.150Z,40.92
2018-02-19T00:34:55.640Z,44.95
2018-02-19T00:37:23.832Z,39.10
2018-02-19T00:39:52.014Z,43.80
2018-02-19T00:42:20.195Z,43.20
2018-02-19T00:44:47.622Z,36.65
2018-02-19T00:47:15.039Z,35.92
2018-02-19T00:49:42.458Z,45.70
2018-02-19T00:52:09.874Z,37.35
2018-02-19T00:54:37.482Z,39.53
2018-02-19T00:57:04.904Z,35.20
2018-02-19T00:59:32.322Z,42.10
2018-02-19T01:01:59.753Z,44.92
2018-02-19T01:04:27.196Z,37.15
2018-02-19T01:06:54.602Z,36.40
2018-02-19T01:09:22.803Z,39.05
2018-02-19T01:11:51.122Z,37.05
2018-02-19T01:14:18.538Z,43.28
2018-02-19T01:16:45.957Z,41.72
2018-02-19T01:19:13.418Z,38.20
2018-02-19T01:21:40.839Z,37.92
2018-02-19T01:24:08.470Z,36.97
2018-02-19T01:26:35.892Z,38.97
2018-02-19T01:29:04.125Z,38.53
2018-02-19T01:31:31.581Z,42.25
2018-02-19T01:33:58.986Z,39.50
2018-02-19T01:36:26.413Z,41.10
2018-02-19T01:38:53.846Z,41.17
2018-02-19T01:41:21.370Z,43.75
2018-02-19T01:43:48.778Z,42.92
2018-02-19T01:46:16.402Z,43.17
2018-02-19T01:48:43.813Z,40.00
2018-02-19T01:51:11.241Z,45.38
2018-02-19T01:53:38.702Z,39.03
2018-02-19T01:56:06.122Z,43.00
2018-02-19T01:58:33.534Z,42.58
2018-02-19T02:01:00.958Z,45.17
2018-02-19T02:03:28.468Z,41.88
2018-02-19T02:05:55.878Z,42.97
2018-02-19T02:08:23.309Z,44.08
2018-02-19T02:10:50.776Z,45.80
2018-02-19T02:13:18.190Z,41.60
2018-02-19T02:15:45.623Z,40.15
2018-02-19T02:18:13.063Z,38.63
2018-02-19T02:20:41.240Z,36.92
2018-02-19T02:23:08.662Z,40.58
2018-02-19T02:25:36.068Z,45.33
2018-02-19T02:28:03.578Z,44.03
2018-02-19T02:30:30.988Z,40.88
2018-02-19T02:32:58.421Z,44.83
2018-02-19T02:35:26.591Z,48.50
2018-02-19T02:37:54.780Z,50.75
2018-02-19T02:40:22.209Z,41.75
2018-02-19T02:42:49.624Z,53.55
2018-02-19T02:45:17.035Z,48.72
2018-02-19T02:47:44.501Z,42.90
2018-02-19T02:50:11.906Z,44.40
2018-02-19T02:52:40.134Z,43.95
2018-02-19T02:55:07.694Z,47.85
2018-02-19T02:57:35.105Z,46.08
2018-02-19T03:00:02.516Z,40.55
2018-02-19T03:02:29.955Z,46.00
2018-02-19T03:04:58.124Z,44.22
2018-02-19T03:07:25.534Z,39.80
2018-02-19T03:09:53.015Z,45.72
2018-02-19T03:12:20.478Z,41.28
2018-02-19T03:14:48.658Z,45.72
2018-02-19T03:17:16.057Z,43.85
2018-02-19T03:19:43.488Z,46.67
2018-02-19T03:22:11.658Z,42.75
2018-02-19T03:24:39.866Z,40.20
2018-02-19T03:27:08.034Z,48.70
2018-02-19T03:29:36.206Z,43.05
2018-02-19T03:32:03.634Z,52.67
2018-02-19T03:34:31.041Z,46.75
2018-02-19T03:36:58.455Z,43.87
2018-02-19T03:39:25.866Z,41.00
2018-02-19T03:41:53.287Z,47.65
2018-02-19T03:44:20.698Z,43.17
2018-02-19T03:46:48.105Z,46.60
2018-02-19T03:49:16.271Z,43.45
2018-02-19T03:51:43.773Z,43.87
2018-02-19T03:54:11.243Z,47.13
2018-02-19T03:56:38.724Z,47.70
2018-02-19T03:59:06.115Z,49.47
2018-02-19T04:01:33.535Z,53.00
2018-02-19T04:04:01.742Z,44.83
2018-02-19T04:06:29.209Z,49.80
2018-02-19T04:08:56.627Z,53.17
2018-02-19T04:11:24.043Z,49.15
2018-02-19T04:13:51.518Z,50.92
2018-02-19T04:16:18.913Z,53.25
2018-02-19T04:18:46.335Z,50.33
2018-02-19T04:21:14.510Z,49.33
2018-02-19T04:23:42.693Z,46.72
2018-02-19T04:26:10.882Z,43.25
2018-02-19T04:28:39.064Z,47.92
2018-02-19T04:31:07.246Z,54.05
2018-02-19T04:33:34.649Z,50.85
2018-02-19T04:36:02.099Z,51.13
2018-02-19T04:38:30.295Z,52.03
2018-02-19T04:40:57.707Z,50.58
2018-02-19T04:43:25.127Z,49.88
2018-02-19T04:46:08.202Z,50.70
2018-02-19T04:48:35.625Z,58.17
2018-02-19T04:51:03.801Z,53.08
2018-02-19T04:53:31.978Z,49.38
2018-02-19T04:55:59.406Z,51.78
2018-02-19T04:58:26.864Z,47.70
2018-02-19T05:00:54.283Z,55.22
2018-02-19T05:03:21.707Z,50.17
2018-02-19T05:05:49.110Z,57.88
2018-02-19T05:08:16.523Z,54.08
2018-02-19T05:10:43.941Z,46.65
2018-02-19T05:13:11.353Z,52.33
2018-02-19T05:15:38.774Z,56.28
2018-02-19T05:18:06.194Z,54.42
2018-02-19T05:20:33.665Z,51.53
2018-02-19T05:23:01.190Z,55.15
2018-02-19T05:25:28.546Z,49.22
2018-02-19T05:27:55.964Z,55.78
2018-02-19T05:30:23.399Z,57.78
2018-02-19T05:32:51.600Z,59.90
2018-02-19T05:35:19.765Z,57.50
2018-02-19T05:37:47.186Z,55.90
2018-02-19T05:40:14.586Z,50.60
2018-02-19T05:42:42.002Z,59.22
2018-02-19T05:45:09.414Z,52.92
2018-02-19T05:47:36.879Z,51.45
2018-02-19T05:50:05.032Z,48.75
2018-02-19T05:52:32.448Z,55.55
2018-02-19T05:54:59.971Z,52.85
2018-02-19T05:57:27.438Z,59.35
2018-02-19T05:59:55.016Z,63.83
2018-02-19T06:02:22.434Z,54.90
2018-02-19T06:04:49.846Z,57.47
2018-02-19T06:07:17.267Z,55.58
2018-02-19T06:09:44.777Z,60.30
2018-02-19T06:12:12.193Z,61.17
2018-02-19T06:14:39.619Z,55.92
2018-02-19T06:17:07.042Z,58.47
2018-02-19T06:19:34.441Z,56.05
2018-02-19T06:22:01.872Z,62.03
2018-02-19T06:24:29.301Z,57.05
2018-02-19T06:26:56.717Z,58.60
2018-02-19T06:29:24.240Z,54.15
2018-02-19T06:31:51.684Z,66.32
2018-02-19T06:34:19.850Z,64.93
2018-02-19T06:36:48.081Z,57.45
2018-02-19T06:39:15.492Z,62.30
2018-02-19T06:41:42.896Z,63.85
2018-02-19T06:44:10.349Z,56.78
2018-02-19T06:46:37.846Z,55.70
2018-02-19T06:49:05.311Z,57.47
2018-02-19T06:51:32.742Z,59.78
2018-02-19T06:54:00.162Z,57.78
2018-02-19T06:56:27.581Z,63.17
2018-02-19T06:58:55.020Z,61.33
2018-02-19T07:01:22.567Z,66.62
2018-02-19T07:03:50.113Z,68.30
2018-02-19T07:06:17.594Z,64.75
2018-02-19T07:08:45.027Z,62.95
2018-02-19T07:11:12.458Z,60.75
2018-02-19T07:13:39.893Z,66.72
2018-02-19T07:16:07.298Z,55.33
2018-02-19T07:18:34.730Z,65.90
2018-02-19T07:21:02.925Z,58.33
2018-02-19T07:23:30.389Z,56.97
2018-02-19T07:25:57.834Z,57.17
2018-02-19T07:28:26.014Z,57.33
2018-02-19T07:30:54.985Z,56.53
2018-02-19T07:33:22.414Z,62.17
2018-02-19T07:35:49.855Z,60.67
2018-02-19T07:38:18.036Z,60.17
2018-02-19T07:40:45.471Z,60.85
2018-02-19T07:43:12.894Z,51.47
2018-02-19T07:45:41.075Z,66.72
2018-02-19T07:48:09.250Z,60.33
2018-02-19T07:50:37.450Z,61.70
2018-02-19T07:53:05.670Z,55.95
2018-02-19T07:55:33.133Z,57.60
2018-02-19T07:58:00.556Z,57.50
2018-02-19T08:00:28.742Z,57.53
2018-02-19T08:02:56.972Z,58.97
2018-02-19T08:05:24.432Z,61.45
2018-02-19T08:07:51.942Z,62.72
2018-02-19T08:10:39.085Z,61.15
2018-02-19T08:13:06.482Z,66.10
2018-02-19T08:15:33.959Z,57.03
2018-02-19T08:18:01.423Z,56.63
2018-02-19T08:20:28.830Z,60.12
2018-02-19T08:22:57.011Z,65.53
2018-02-19T08:25:25.200Z,68.53
2018-02-19T08:27:52.676Z,67.97
2018-02-19T08:30:20.083Z,61.63
2018-02-19T08:32:47.598Z,54.70
2018-02-19T08:35:15.010Z,60.97
2018-02-19T08:37:43.212Z,66.05
2018-02-19T08:40:11.418Z,55.55
2018-02-19T08:42:38.841Z,64.30
2018-02-19T08:45:07.006Z,59.90
2018-02-19T08:47:34.449Z,58.83
2018-02-19T08:50:01.862Z,56.28
2018-02-19T08:52:29.288Z,66.80
2018-02-19T08:54:56.749Z,61.40
2018-02-19T08:57:24.159Z,65.93
2018-02-19T08:59:51.686Z,57.10
2018-02-19T09:02:19.084Z,67.87
2018-02-19T09:04:46.540Z,65.47
2018-02-19T09:07:14.105Z,60.15
2018-02-19T09:09:41.517Z,58.63
2018-02-19T09:12:09.724Z,64.03
2018-02-19T09:14:37.902Z,63.28
2018-02-19T09:17:06.110Z,57.75
2018-02-19T09:19:33.531Z,58.42
2018-02-19T09:22:00.937Z,62.45
2018-02-19T09:24:28.420Z,65.68
2018-02-19T09:26:55.834Z,66.37
2018-02-19T09:29:23.354Z,55.78
2018-02-19T09:31:50.780Z,47.55
2018-02-19T09:34:18.256Z,58.40
2018-02-19T09:36:45.694Z,47.20
2018-02-19T09:39:13.097Z,58.28
2018-02-19T09:41:41.312Z,58.38
2018-02-19T09:44:09.510Z,57.75
2018-02-19T09:46:36.913Z,61.10
2018-02-19T09:49:04.437Z,54.75
2018-02-19T09:51:31.858Z,55.10
2018-02-19T09:53:59.473Z,55.70
2018-02-19T09:56:27.621Z,60.90
2018-02-19T09:58:55.048Z,57.00
2018-02-19T10:01:22.509Z,66.28
2018-02-19T10:03:50.080Z,51.88
2018-02-19T10:06:18.309Z,53.35
2018-02-19T10:08:45.775Z,60.03
2018-02-19T10:11:13.222Z,57.10
2018-02-19T10:13:40.634Z,63.20
2018-02-19T10:16:08.826Z,57.10
2018-02-19T10:18:37.083Z,56.97
2018-02-19T10:21:04.481Z,51.37
2018-02-19T10:23:32.685Z,58.72
2018-02-19T10:26:00.185Z,55.47
2018-02-19T10:28:27.622Z,58.53
2018-02-19T10:30:55.065Z,59.17
2018-02-19T10:33:22.485Z,59.33
2018-02-19T10:35:49.889Z,54.72
2018-02-19T10:38:17.314Z,57.75
2018-02-19T10:40:44.740Z,61.72
2018-02-19T10:43:13.073Z,58.28
2018-02-19T10:45:40.461Z,54.83
2018-02-19T10:48:07.929Z,56.85
2018-02-19T10:50:35.528Z,63.25
2018-02-19T10:53:03.000Z,53.90
2018-02-19T10:55:30.438Z,54.92
2018-02-19T10:57:58.038Z,60.00
2018-02-19T11:00:32.870Z,54.53
2018-02-19T11:03:00.318Z,58.08
2018-02-19T11:05:27.767Z,53.30
2018-02-19T11:07:55.255Z,56.97
2018-02-19T11:10:22.702Z,55.47
2018-02-19T11:12:50.106Z,50.10
2018-02-19T11:15:17.639Z,51.60
2018-02-19T11:17:45.113Z,46.13
2018-02-19T11:20:12.525Z,50.00
2018-02-19T11:22:39.946Z,55.67
2018-02-19T11:25:07.442Z,53.80
2018-02-19T11:27:34.863Z,49.80
2018-02-19T11:30:02.273Z,49.40
2018-02-19T11:32:30.714Z,55.50
2018-02-19T11:34:58.892Z,56.47
2018-02-19T11:37:27.106Z,53.60
2018-02-19T11:39:54.519Z,51.10
2018-02-19T11:42:21.918Z,47.07
2018-02-19T11:44:50.153Z,51.00
2018-02-19T11:47:17.788Z,57.80
2018-02-19T11:49:45.993Z,59.07
2018-02-19T11:52:13.482Z,52.93
2018-02-19T11:54:40.969Z,55.90
2018-02-19T11:57:08.394Z,72.57
2018-02-19T11:59:35.886Z,49.33
2018-02-19T12:02:03.322Z,49.30
2018-02-19T12:04:31.503Z,59.57
2018-02-19T12:06:59.691Z,50.00
2018-02-19T12:09:27.922Z,50.07
2018-02-19T12:11:55.346Z,52.37
2018-02-19T12:14:22.755Z,47.10
2018-02-19T12:16:50.218Z,54.80
2018-02-19T12:19:17.642Z,49.30
2018-02-19T12:21:45.259Z,48.90
2018-02-19T12:24:12.663Z,47.60
2018-02-19T12:26:40.079Z,44.40
2018-02-19T12:29:08.278Z,44.53
2018-02-19T12:31:35.709Z,46.27
2018-02-19T12:34:03.126Z,49.33
2018-02-19T12:36:30.601Z,41.57
2018-02-19T12:38:58.006Z,43.37
2018-02-19T12:41:26.944Z,40.77
2018-02-19T12:43:55.176Z,42.60
2018-02-19T12:46:22.614Z,43.97
2018-02-19T12:48:50.107Z,42.83
2018-02-19T12:51:17.587Z,46.27
2018-02-19T12:53:45.088Z,51.50
2018-02-19T12:56:13.282Z,44.40
2018-02-19T12:58:41.499Z,46.07
2018-02-19T13:01:09.035Z,48.43
2018-02-19T13:03:37.248Z,41.70
2018-02-19T13:06:04.736Z,48.93
2018-02-19T13:08:32.146Z,51.23
2018-02-19T13:10:59.554Z,44.33
2018-02-19T13:13:27.020Z,44.90
2018-02-19T13:15:54.485Z,49.80
2018-02-19T13:18:22.704Z,45.30
2018-02-19T13:20:50.846Z,41.07
2018-02-19T13:23:18.271Z,47.10
2018-02-19T13:25:45.695Z,46.30
2018-02-19T13:28:13.122Z,44.60
2018-02-19T13:30:40.556Z,59.33
2018-02-19T13:33:08.000Z,42.70
2018-02-19T13:35:35.462Z,47.40
2018-02-19T13:38:02.920Z,49.30
2018-02-19T13:40:30.314Z,45.47
2018-02-19T13:42:57.799Z,46.53
2018-02-19T13:45:26.200Z,47.60
2018-02-19T13:47:53.615Z,43.40
2018-02-19T13:50:21.827Z,46.83
2018-02-19T13:52:49.218Z,44.63
2018-02-19T13:55:16.681Z,48.60
2018-02-19T13:57:44.126Z,42.67
2018-02-19T14:00:11.544Z,49.30
2018-02-19T14:02:38.956Z,43.97
2018-02-19T14:05:06.394Z,54.27
2018-02-19T14:07:33.801Z,52.73
2018-02-19T14:10:01.314Z,48.20
2018-02-19T14:12:28.746Z,46.63
2018-02-19T14:14:56.181Z,48.67
2018-02-19T14:17:24.358Z,46.20
2018-02-19T14:19:52.654Z,48.60
2018-02-19T14:22:20.914Z,45.60
2018-02-19T14:24:48.493Z,49.70
2018-02-19T14:27:16.011Z,51.73
2018-02-19T14:29:43.480Z,51.43
2018-02-19T14:32:10.900Z,46.63
2018-02-19T14:34:38.347Z,59.53
2018-02-19T14:37:05.777Z,44.40
2018-02-19T14:39:33.238Z,49.60
2018-02-19T14:42:01.415Z,45.43
2018-02-19T14:44:29.644Z,49.10
2018-02-19T14:46:57.126Z,55.00
2018-02-19T14:49:24.548Z,52.47
2018-02-19T14:51:52.723Z,49.53
2018-02-19T14:54:20.959Z,52.10
2018-02-19T14:56:48.386Z,49.00
2018-02-19T14:59:15.811Z,51.90
2018-02-19T15:01:43.245Z,59.20
2018-02-19T15:04:10.644Z,54.53
2018-02-19T15:06:38.098Z,59.33
2018-02-19T15:09:05.560Z,57.30
2018-02-19T15:11:32.981Z,49.80
2018-02-19T15:14:01.188Z,53.63
2018-02-19T15:16:28.678Z,50.77
2018-02-19T15:18:56.070Z,53.60
2018-02-19T15:21:23.498Z,49.93
2018-02-19T15:23:50.978Z,52.13
2018-02-19T15:26:19.146Z,61.73
2018-02-19T15:28:46.598Z,49.63
2018-02-19T15:31:14.819Z,56.63
2018-02-19T15:33:42.981Z,61.90
2018-02-19T15:36:11.150Z,58.87
2018-02-19T15:38:39.354Z,56.20
2018-02-19T15:41:06.800Z,58.67
2018-02-19T15:43:34.247Z,62.03
2018-02-19T15:46:01.659Z,62.53
2018-02-19T15:48:29.078Z,55.78
2018-02-19T15:50:56.509Z,58.42
2018-02-19T15:53:23.960Z,52.43
2018-02-19T15:55:52.206Z,54.30
2018-02-19T15:58:19.683Z,63.17
2018-02-19T16:00:47.134Z,49.20
2018-02-19T16:03:15.530Z,51.20
2018-02-19T16:05:42.968Z,49.83
2018-02-19T16:08:10.374Z,58.63
2018-02-19T16:10:37.794Z,57.37
2018-02-19T16:13:05.226Z,53.27
2018-02-19T16:15:32.667Z,53.53
2018-02-19T16:18:00.072Z,51.40
2018-02-19T16:20:28.283Z,52.70
2018-02-19T16:22:55.718Z,69.85
2018-02-19T16:25:23.949Z,47.92
2018-02-19T16:27:52.118Z,53.10
2018-02-19T16:30:19.539Z,60.33
2018-02-19T16:32:47.028Z,55.65
2018-02-19T16:35:14.606Z,57.27
2018-02-19T16:37:42.038Z,52.33
2018-02-19T16:40:09.671Z,58.63
2018-02-19T16:42:37.106Z,55.33
2018-02-19T16:45:04.623Z,62.03
2018-02-19T16:47:32.046Z,51.63
2018-02-19T16:49:59.556Z,62.97
2018-02-19T16:52:27.037Z,59.27
2018-02-19T16:54:54.468Z,59.10
2018-02-19T16:57:21.903Z,53.78
2018-02-19T16:59:49.372Z,54.95
2018-02-19T17:02:16.800Z,54.78
2018-02-19T17:04:44.250Z,60.60
2018-02-19T17:07:11.674Z,65.07
2018-02-19T17:09:39.098Z,52.95
2018-02-19T17:12:06.521Z,66.53
2018-02-19T17:14:33.946Z,58.55
2018-02-19T17:17:01.412Z,60.50
2018-02-19T17:19:28.889Z,57.85
2018-02-19T17:21:56.514Z,57.58
2018-02-19T17:24:23.972Z,59.30
2018-02-19T17:26:51.395Z,56.05
2018-02-19T17:29:18.903Z,59.75
2018-02-19T17:31:46.326Z,58.13
2018-02-19T17:34:13.910Z,61.35
2018-02-19T17:36:41.326Z,60.88
2018-02-19T17:39:09.530Z,58.42
2018-02-19T17:41:37.739Z,58.05
2018-02-19T17:44:05.155Z,59.58
2018-02-19T17:46:32.573Z,68.07
2018-02-19T17:49:00.047Z,64.87
2018-02-19T17:51:27.511Z,66.78
2018-02-19T17:53:54.939Z,68.43
2018-02-19T17:56:22.481Z,71.25
2018-02-19T17:58:49.970Z,67.97
2018-02-19T18:01:17.588Z,68.12
2018-02-19T18:03:45.018Z,67.50
2018-02-19T18:06:12.435Z,67.43
2018-02-19T18:08:39.921Z,65.97
2018-02-19T18:11:07.336Z,74.72
2018-02-19T18:13:35.518Z,71.03
2018-02-19T18:16:03.706Z,73.20
2018-02-19T18:18:31.900Z,65.70
2018-02-19T18:21:00.094Z,70.50
2018-02-19T18:23:27.520Z,73.85
2018-02-19T18:25:55.047Z,65.43
2018-02-19T18:28:22.470Z,79.40
2018-02-19T18:30:49.891Z,78.07
2018-02-19T18:33:17.365Z,76.87
2018-02-19T18:35:44.838Z,66.07
2018-02-19T18:38:12.304Z,72.85
2018-02-19T18:40:39.725Z,70.25
2018-02-19T18:43:07.169Z,82.70
2018-02-19T18:45:35.628Z,74.28
2018-02-19T18:48:03.076Z,76.65
2018-02-19T18:50:31.365Z,66.87
2018-02-19T18:52:59.539Z,64.62
2018-02-19T18:55:27.742Z,76.40
2018-02-19T18:57:55.164Z,65.40
2018-02-19T19:00:24.546Z,65.82
2018-02-19T19:02:51.986Z,71.25
2018-02-19T19:05:19.434Z,69.28
2018-02-19T19:08:00.643Z,66.43
2018-02-19T19:10:40.674Z,53.78
2018-02-19T19:13:08.101Z,66.93
2018-02-19T19:15:35.532Z,63.08
2018-02-19T19:18:03.732Z,64.45
2018-02-19T19:20:31.915Z,60.88
2018-02-19T19:23:00.098Z,66.85
2018-02-19T19:25:28.308Z,71.82
2018-02-19T19:27:56.479Z,69.05
2018-02-19T19:30:24.678Z,69.40
2018-02-19T19:32:52.127Z,65.45
2018-02-19T19:35:20.340Z,68.07
2018-02-19T19:37:47.772Z,63.20
2018-02-19T19:40:15.980Z,75.37
2018-02-19T19:42:43.439Z,65.07
2018-02-19T19:45:11.650Z,67.62
2018-02-19T19:47:39.078Z,69.75
2018-02-19T19:50:07.287Z,70.78
2018-02-19T19:52:34.792Z,65.12
2018-02-19T19:55:02.229Z,68.37
2018-02-19T19:57:29.660Z,67.75
2018-02-19T19:59:57.181Z,67.05
2018-02-19T20:02:24.590Z,70.40
2018-02-19T20:04:52.031Z,73.28
2018-02-19T20:07:19.459Z,68.62
2018-02-19T20:09:47.655Z,72.60
2018-02-19T20:12:15.067Z,68.35
2018-02-19T20:14:42.523Z,67.78
2018-02-19T20:17:09.942Z,73.90
2018-02-19T20:19:38.221Z,69.87
2018-02-19T20:22:05.730Z,65.43
2018-02-19T20:24:33.172Z,73.25
2018-02-19T20:27:01.377Z,74.57
2018-02-19T20:29:29.550Z,66.35
2018-02-19T20:31:57.735Z,64.12
2018-02-19T20:34:25.937Z,68.28
2018-02-19T20:36:53.362Z,64.22
2018-02-19T20:39:20.884Z,70.35
2018-02-19T20:41:48.340Z,69.47
2018-02-19T20:44:15.759Z,77.50
2018-02-19T20:46:43.184Z,75.18
2018-02-19T20:49:10.610Z,72.50
2018-02-19T20:51:38.030Z,65.40
2018-02-19T20:54:05.442Z,74.35
2018-02-19T20:56:32.926Z,70.53
2018-02-19T20:59:01.117Z,70.03
2018-02-19T21:01:29.295Z,77.43
2018-02-19T21:03:57.481Z,75.32
2018-02-19T21:06:25.703Z,77.07
2018-02-19T21:08:53.136Z,70.05
2018-02-19T21:11:20.589Z,78.55
2018-02-19T21:13:47.986Z,64.95
2018-02-19T21:16:16.173Z,71.68
2018-02-19T21:18:43.603Z,82.12
2018-02-19T21:21:11.019Z,72.37
2018-02-19T21:23:38.434Z,72.87
2018-02-19T21:26:05.925Z,69.57
2018-02-19T21:28:33.337Z,76.12
2018-02-19T21:31:00.774Z,71.12
2018-02-19T21:33:29.120Z,80.68
2018-02-19T21:35:56.552Z,86.32
2018-02-19T21:38:24.031Z,74.18
2018-02-19T21:40:51.458Z,69.15
2018-02-19T21:43:18.883Z,78.45
2018-02-19T21:45:46.332Z,81.53
2018-02-19T21:48:13.756Z,69.80
2018-02-19T21:50:41.181Z,65.43
2018-02-19T21:53:08.610Z,69.57
2018-02-19T21:55:36.803Z,80.72
2018-02-19T21:58:04.978Z,70.00
2018-02-19T22:00:33.226Z,71.97
2018-02-19T22:03:00.643Z,81.32
2018-02-19T22:05:28.857Z,78.62
2018-02-19T22:07:56.331Z,77.18
2018-02-19T22:10:24.273Z,71.57
2018-02-19T22:12:52.454Z,75.12
2018-02-19T22:15:20.698Z,74.57
2018-02-19T22:17:48.203Z,78.45
2018-02-19T22:20:15.647Z,72.07
2018-02-19T22:22:43.057Z,77.12
2018-02-19T22:25:11.278Z,83.30
2018-02-19T22:27:38.695Z,80.65
2018-02-19T22:30:06.211Z,69.40
2018-02-19T22:32:33.646Z,70.80
2018-02-19T22:35:01.067Z,72.95
2018-02-19T22:37:28.502Z,74.95
2018-02-19T22:39:55.934Z,77.72
2018-02-19T22:42:24.116Z,75.30
2018-02-19T22:47:24.515Z,87.72
2018-02-19T22:49:51.933Z,73.95
2018-02-19T22:52:19.370Z,78.90
2018-02-19T22:54:46.835Z,72.70
2018-02-19T22:57:14.266Z,81.25
2018-02-19T22:59:42.443Z,73.55
2018-02-19T23:02:09.862Z,79.12
2018-02-19T23:04:37.330Z,83.37
2018-02-19T23:07:04.757Z,78.30
2018-02-19T23:09:32.262Z,79.47
2018-02-19T23:11:59.718Z,92.85
2018-02-19T23:14:27.902Z,84.07
2018-02-19T23:16:55.318Z,78.53
2018-02-19T23:19:22.738Z,79.03
2018-02-19T23:21:50.183Z,77.85
2018-02-19T23:24:17.615Z,76.30
2018-02-19T23:26:45.049Z,73.60
2018-02-19T23:29:12.474Z,84.10
2018-02-19T23:31:39.888Z,72.97
2018-02-19T23:34:07.358Z,72.80
2018-02-19T23:36:34.825Z,81.80
2018-02-19T23:39:02.267Z,76.65
2018-02-19T23:41:30.483Z,84.13
2018-02-19T23:43:57.902Z,80.38
2018-02-19T23:46:25.450Z,76.35
2018-02-19T23:48:52.913Z,72.90
2018-02-19T23:51:20.321Z,80.65
2018-02-19T23:53:48.544Z,76.62
2018-02-19T23:56:15.954Z,79.18
2018-02-19T23:58:43.370Z,78.47
